PWSweather.com
Personal Weather Stations
Station Observations
DL5ARK
SonnebergDE

SonnebergDE

Lat: 50.34904861, Lon: 11.18112087

Elevation: 1214

Station Type: Selfmade

http://www.sumbarg.de

Latest ConditionsUpdated 2:57:43 AM GMT+01:01 Friday, Dec 14, 2018
Currently Today's Max Today's Min Today's Average
Temperature 29.1°F-1.6°C 29.3°F-1.5°C 29.0°F-1.7°C 29.1°F-1.6°C
Dew Point 28.2°F-2.1°C 29.0°F-1.7°C 27.4°F-2.6°C 28.2°F-2.1°C
Winds 4.4 mph SE7.1 kmh SE 14.1 mph -22.7 kmh - - 8.4 mph 13.5 kmh
Wind Gusts 4.5 mph7.2 kmh 14.3 mph23.0 kmh - -
Humidity 77% 78% 76% 77%
Pressure 30.05 in1017.6 mb 30.05 in1017.6 mb 30.03 in1016.9 mb -
Hour Temp Dew Point Humidity Winds Wind Gusts Pressure Precip Precip Rate Daily Precip Total
02:57 AM 29.1°F-1.6°C 28.2°F-2.1°C 77% 4.4 mph SE7.1 kmh SE 4.5 mph7.2 kmh 30.05 in1017.6 mb 0.00 in0.0 mm 0.00 in0.0 mm 0.00 in0.0 mm
02:54 AM 29.1°F-1.6°C 28.4°F-2.0°C 77% 8.9 mph NNW14.3 kmh NNW 8.9 mph14.3 kmh 30.05 in1017.6 mb 0.00 in0.0 mm 0.00 in0.0 mm 0.00 in0.0 mm
02:51 AM 29.2°F-1.6°C 28.0°F-2.2°C 77% 10.1 mph SE16.3 kmh SE 10.1 mph16.3 kmh 30.05 in1017.6 mb 0.00 in0.0 mm 0.00 in0.0 mm 0.00 in0.0 mm
02:48 AM 29.1°F-1.6°C 28.2°F-2.1°C 77% 7.3 mph NNW11.7 kmh NNW 7.3 mph11.7 kmh 30.05 in1017.6 mb 0.00 in0.0 mm 0.00 in0.0 mm 0.00 in0.0 mm
02:45 AM 29.2°F-1.6°C 27.9°F-2.3°C 77% 7.3 mph ESE11.7 kmh ESE 7.3 mph11.7 kmh 30.05 in1017.6 mb 0.00 in0.0 mm 0.00 in0.0 mm 0.00 in0.0 mm
02:42 AM 29.2°F-1.6°C 27.8°F-2.3°C 77% 7.3 mph SE11.7 kmh SE 7.3 mph11.7 kmh 30.05 in1017.6 mb 0.00 in0.0 mm 0.00 in0.0 mm 0.00 in0.0 mm
02:39 AM 29.2°F-1.6°C 27.9°F-2.3°C 77% 8.1 mph SE13.0 kmh SE 8.2 mph13.2 kmh 30.05 in1017.6 mb 0.00 in0.0 mm 0.00 in0.0 mm 0.00 in0.0 mm
02:36 AM 29.1°F-1.6°C 28.5°F-1.9°C 78% 8.5 mph SE13.7 kmh SE 8.5 mph13.7 kmh 30.05 in1017.6 mb 0.00 in0.0 mm 0.00 in0.0 mm 0.00 in0.0 mm
02:33 AM 29.1°F-1.6°C 28.6°F-1.9°C 78% 7.7 mph ESE12.4 kmh ESE 7.7 mph12.4 kmh 30.05 in1017.6 mb 0.00 in0.0 mm 0.00 in0.0 mm 0.00 in0.0 mm
02:30 AM 29.1°F-1.6°C 28.5°F-1.9°C 77% 6.0 mph SE9.7 kmh SE 6.0 mph9.7 kmh 30.05 in1017.6 mb 0.00 in0.0 mm 0.00 in0.0 mm 0.00 in0.0 mm
02:27 AM 29.1°F-1.6°C 28.5°F-1.9°C 77% 5.7 mph SE9.2 kmh SE 5.7 mph9.2 kmh 30.05 in1017.6 mb 0.00 in0.0 mm 0.00 in0.0 mm 0.00 in0.0 mm
02:24 AM 29.1°F-1.6°C 28.6°F-1.9°C 77% 9.9 mph NNW15.9 kmh NNW 9.9 mph15.9 kmh 30.05 in1017.6 mb 0.00 in0.0 mm 0.00 in0.0 mm 0.00 in0.0 mm
02:21 AM 29.1°F-1.6°C 29.0°F-1.7°C 78% 5.2 mph SE8.4 kmh SE 5.2 mph8.4 kmh 30.05 in1017.6 mb 0.00 in0.0 mm 0.00 in0.0 mm 0.00 in0.0 mm
02:18 AM 29.1°F-1.6°C 28.6°F-1.9°C 78% 4.8 mph NNW7.7 kmh NNW 4.8 mph7.7 kmh 30.05 in1017.6 mb 0.00 in0.0 mm 0.00 in0.0 mm 0.00 in0.0 mm
02:15 AM 29.2°F-1.6°C 28.4°F-2.0°C 78% 5.7 mph SSE9.2 kmh SSE 5.7 mph9.2 kmh 30.05 in1017.6 mb 0.00 in0.0 mm 0.00 in0.0 mm 0.00 in0.0 mm
02:12 AM 29.1°F-1.6°C 28.0°F-2.2°C 78% 10.1 mph NNW16.3 kmh NNW 10.1 mph16.3 kmh 30.05 in1017.6 mb 0.00 in0.0 mm 0.00 in0.0 mm 0.00 in0.0 mm
02:09 AM 29.1°F-1.6°C 28.2°F-2.1°C 78% 6.9 mph ESE11.1 kmh ESE 6.9 mph11.1 kmh 30.05 in1017.6 mb 0.00 in0.0 mm 0.00 in0.0 mm 0.00 in0.0 mm
02:06 AM 29.1°F-1.6°C 27.7°F-2.4°C 77% 9.5 mph ESE15.3 kmh ESE 9.6 mph15.4 kmh 30.03 in1016.9 mb 0.00 in0.0 mm 0.00 in0.0 mm 0.00 in0.0 mm
02:03 AM 29.0°F-1.7°C 27.9°F-2.3°C 77% 7.5 mph ESE12.1 kmh ESE 7.6 mph12.2 kmh 30.04 in1017.3 mb 0.00 in0.0 mm 0.00 in0.0 mm 0.00 in0.0 mm
02:00 AM 29.0°F-1.7°C 28.2°F-2.1°C 78% 11.3 mph NNW18.2 kmh NNW 11.4 mph18.3 kmh 30.04 in1017.3 mb 0.00 in0.0 mm 0.00 in0.0 mm 0.00 in0.0 mm
01:57 AM 29.1°F-1.6°C 27.9°F-2.3°C 77% 6.5 mph ESE10.5 kmh ESE 6.5 mph10.5 kmh 30.04 in1017.3 mb 0.00 in0.0 mm 0.00 in0.0 mm 0.00 in0.0 mm
01:54 AM 29.1°F-1.6°C 28.1°F-2.2°C 77% 9.7 mph ESE15.6 kmh ESE 9.8 mph15.8 kmh 30.04 in1017.3 mb 0.00 in0.0 mm 0.00 in0.0 mm 0.00 in0.0 mm
01:51 AM 29.1°F-1.6°C 28.1°F-2.2°C 77% 9.5 mph SE15.3 kmh SE 9.6 mph15.4 kmh 30.04 in1017.3 mb 0.00 in0.0 mm 0.00 in0.0 mm 0.00 in0.0 mm
01:48 AM 29.1°F-1.6°C 28.0°F-2.2°C 78% 8.5 mph SE13.7 kmh SE 8.5 mph13.7 kmh 30.03 in1016.9 mb 0.00 in0.0 mm 0.00 in0.0 mm 0.00 in0.0 mm
01:45 AM 29.1°F-1.6°C 27.8°F-2.3°C 77% 14.1 mph SE22.7 kmh SE 14.3 mph23.0 kmh 30.04 in1017.3 mb 0.00 in0.0 mm 0.00 in0.0 mm 0.00 in0.0 mm
01:42 AM 29.1°F-1.6°C 28.4°F-2.0°C 78% 9.7 mph SE15.6 kmh SE 9.8 mph15.8 kmh 30.04 in1017.3 mb 0.00 in0.0 mm 0.00 in0.0 mm 0.00 in0.0 mm
01:39 AM 29.1°F-1.6°C 28.0°F-2.2°C 77% 9.7 mph SE15.6 kmh SE 9.8 mph15.8 kmh 30.03 in1016.9 mb 0.00 in0.0 mm 0.00 in0.0 mm 0.00 in0.0 mm
01:36 AM 29.1°F-1.6°C 28.4°F-2.0°C 78% 7.5 mph ESE12.1 kmh ESE 7.6 mph12.2 kmh 30.04 in1017.3 mb 0.00 in0.0 mm 0.00 in0.0 mm 0.00 in0.0 mm
01:33 AM 29.1°F-1.6°C 28.2°F-2.1°C 77% 10.1 mph NNW16.3 kmh NNW 10.2 mph16.4 kmh 30.04 in1017.3 mb 0.00 in0.0 mm 0.00 in0.0 mm 0.00 in0.0 mm
01:30 AM 29.2°F-1.6°C 28.1°F-2.2°C 77% 12.7 mph ESE20.4 kmh ESE 12.7 mph20.4 kmh 30.04 in1017.3 mb 0.00 in0.0 mm 0.00 in0.0 mm 0.00 in0.0 mm
01:27 AM 29.1°F-1.6°C 28.1°F-2.2°C 77% 7.3 mph ESE11.7 kmh ESE 7.3 mph11.7 kmh 30.04 in1017.3 mb 0.00 in0.0 mm 0.00 in0.0 mm 0.00 in0.0 mm
01:24 AM 29.1°F-1.6°C 28.2°F-2.1°C 77% 6.4 mph NNW10.3 kmh NNW 6.4 mph10.3 kmh 30.05 in1017.6 mb 0.00 in0.0 mm 0.00 in0.0 mm 0.00 in0.0 mm
01:21 AM 29.1°F-1.6°C 27.8°F-2.3°C 76% 11.9 mph SE19.2 kmh SE 12.0 mph19.3 kmh 30.04 in1017.3 mb 0.00 in0.0 mm 0.00 in0.0 mm 0.00 in0.0 mm
01:18 AM 29.2°F-1.6°C 28.1°F-2.2°C 77% 6.8 mph SE10.9 kmh SE 6.8 mph10.9 kmh 30.03 in1016.9 mb 0.00 in0.0 mm 0.00 in0.0 mm 0.00 in0.0 mm
01:15 AM 29.1°F-1.6°C 28.2°F-2.1°C 76% 6.7 mph SE10.8 kmh SE 6.8 mph10.9 kmh 30.04 in1017.3 mb 0.00 in0.0 mm 0.00 in0.0 mm 0.00 in0.0 mm
01:12 AM 29.1°F-1.6°C 28.0°F-2.2°C 77% 10.5 mph ESE16.9 kmh ESE 10.6 mph17.1 kmh 30.04 in1017.3 mb 0.00 in0.0 mm 0.00 in0.0 mm 0.00 in0.0 mm
01:09 AM 29.1°F-1.6°C 28.0°F-2.2°C 76% 12.5 mph SE20.1 kmh SE 12.5 mph20.1 kmh 30.04 in1017.3 mb 0.00 in0.0 mm 0.00 in0.0 mm 0.00 in0.0 mm
01:06 AM 29.1°F-1.6°C 27.9°F-2.3°C 77% 7.7 mph SE12.4 kmh SE 7.7 mph12.4 kmh 30.04 in1017.3 mb 0.00 in0.0 mm 0.00 in0.0 mm 0.00 in0.0 mm
01:03 AM 29.1°F-1.6°C 28.1°F-2.2°C 77% 8.7 mph SE14.0 kmh SE 8.8 mph14.2 kmh 30.03 in1016.9 mb 0.00 in0.0 mm 0.00 in0.0 mm 0.00 in0.0 mm
01:00 AM 29.1°F-1.6°C 28.2°F-2.1°C 76% 7.1 mph NNW11.4 kmh NNW 7.1 mph11.4 kmh 30.03 in1016.9 mb 0.00 in0.0 mm 0.00 in0.0 mm 0.00 in0.0 mm
12:57 AM 29.0°F-1.7°C 28.4°F-2.0°C 77% 8.1 mph ESE13.0 kmh ESE 8.1 mph13.0 kmh 30.04 in1017.3 mb 0.00 in0.0 mm 0.00 in0.0 mm 0.00 in0.0 mm
12:54 AM 29.1°F-1.6°C 28.2°F-2.1°C 77% 9.9 mph NNW15.9 kmh NNW 10.0 mph16.1 kmh 30.04 in1017.3 mb 0.00 in0.0 mm 0.00 in0.0 mm 0.00 in0.0 mm
12:51 AM 29.1°F-1.6°C 28.0°F-2.2°C 76% 2.8 mph SE4.5 kmh SE 2.9 mph4.7 kmh 30.04 in1017.3 mb 0.00 in0.0 mm 0.00 in0.0 mm 0.00 in0.0 mm
12:48 AM 29.2°F-1.6°C 28.1°F-2.2°C 76% 7.6 mph NNW12.2 kmh NNW 7.6 mph12.2 kmh 30.04 in1017.3 mb 0.00 in0.0 mm 0.00 in0.0 mm 0.00 in0.0 mm
12:45 AM 29.2°F-1.6°C 27.8°F-2.3°C 76% 11.1 mph ESE17.9 kmh ESE 11.2 mph18.0 kmh 30.05 in1017.6 mb 0.00 in0.0 mm 0.00 in0.0 mm 0.00 in0.0 mm
12:42 AM 29.1°F-1.6°C 28.5°F-1.9°C 77% 7.9 mph SE12.7 kmh SE 8.0 mph12.9 kmh 30.04 in1017.3 mb 0.00 in0.0 mm 0.00 in0.0 mm 0.00 in0.0 mm
12:39 AM 29.2°F-1.6°C 28.3°F-2.1°C 77% 6.5 mph ESE10.5 kmh ESE 6.5 mph10.5 kmh 30.05 in1017.6 mb 0.00 in0.0 mm 0.00 in0.0 mm 0.00 in0.0 mm
12:36 AM 29.2°F-1.6°C 27.7°F-2.4°C 76% 7.7 mph ESE12.4 kmh ESE 7.7 mph12.4 kmh 30.04 in1017.3 mb 0.00 in0.0 mm 0.00 in0.0 mm 0.00 in0.0 mm
12:33 AM 29.2°F-1.6°C 28.1°F-2.2°C 77% 7.5 mph SE12.1 kmh SE 7.6 mph12.2 kmh 30.04 in1017.3 mb 0.00 in0.0 mm 0.00 in0.0 mm 0.00 in0.0 mm
12:30 AM 29.3°F-1.5°C 27.4°F-2.6°C 76% 12.5 mph SE20.1 kmh SE 12.6 mph20.3 kmh 30.05 in1017.6 mb 0.00 in0.0 mm 0.00 in0.0 mm 0.00 in0.0 mm
12:27 AM 29.2°F-1.6°C 27.9°F-2.3°C 77% 11.3 mph ESE18.2 kmh ESE 11.4 mph18.3 kmh 30.05 in1017.6 mb 0.00 in0.0 mm 0.00 in0.0 mm 0.00 in0.0 mm
12:24 AM 29.2°F-1.6°C 28.0°F-2.2°C 76% 9.9 mph ESE15.9 kmh ESE 10.0 mph16.1 kmh 30.05 in1017.6 mb 0.00 in0.0 mm 0.00 in0.0 mm 0.00 in0.0 mm
12:21 AM 29.1°F-1.6°C 28.3°F-2.1°C 76% 7.7 mph NNW12.4 kmh NNW 7.8 mph12.6 kmh 30.05 in1017.6 mb 0.00 in0.0 mm 0.00 in0.0 mm 0.00 in0.0 mm
12:15 AM 29.2°F-1.6°C 28.0°F-2.2°C 76% 9.5 mph ESE15.3 kmh ESE 9.6 mph15.4 kmh 30.05 in1017.6 mb 0.00 in0.0 mm 0.00 in0.0 mm 0.00 in0.0 mm
12:12 AM 29.2°F-1.6°C 28.3°F-2.1°C 76% 6.0 mph ESE9.7 kmh ESE 6.1 mph9.8 kmh 30.05 in1017.6 mb 0.00 in0.0 mm 0.00 in0.0 mm 0.00 in0.0 mm
12:09 AM 29.2°F-1.6°C 28.4°F-2.0°C 77% 11.1 mph NNW17.9 kmh NNW 11.1 mph17.9 kmh 30.05 in1017.6 mb 0.00 in0.0 mm 0.00 in0.0 mm 0.00 in0.0 mm
12:06 AM 29.2°F-1.6°C 28.4°F-2.0°C 78% 9.3 mph SE15.0 kmh SE 9.4 mph15.1 kmh 30.04 in1017.3 mb 0.00 in0.0 mm 0.00 in0.0 mm 0.00 in0.0 mm
12:03 AM 29.2°F-1.6°C 28.1°F-2.2°C 77% 6.9 mph SE11.1 kmh SE 6.9 mph11.1 kmh 30.05 in1017.6 mb 0.00 in0.0 mm 0.00 in0.0 mm 0.00 in0.0 mm
12:00 AM 29.1°F-1.6°C 28.5°F-1.9°C 77% 5.6 mph ESE9.0 kmh ESE 5.6 mph9.0 kmh 30.04 in1017.3 mb 0.00 in0.0 mm 0.00 in0.0 mm 0.00 in0.0 mm